createdAt,value
2022-08-04T13:40:55.070Z,72.34
2022-08-04T13:44:18.033Z,72.51
2022-08-04T13:46:57.612Z,72.79
2022-08-04T13:49:43.074Z,72.92
2022-08-04T13:52:18.942Z,72.48
2022-08-04T13:54:53.493Z,72.57
2022-08-04T13:57:33.771Z,72.57
2022-08-04T14:00:10.838Z,72.92
2022-08-04T14:02:52.570Z,72.61
2022-08-04T14:05:29.518Z,72.02
2022-08-04T14:08:26.794Z,71.64
2022-08-04T14:11:00.491Z,71.58
2022-08-04T14:13:41.977Z,70.97
2022-08-04T14:16:23.216Z,70.46
2022-08-04T14:19:02.824Z,70.91
2022-08-04T14:21:39.214Z,70.59
2022-08-04T14:24:10.320Z,70.76
2022-08-04T14:26:40.684Z,70.73
2022-08-04T14:29:26.657Z,70.71
2022-08-04T14:32:14.670Z,70.61
2022-08-04T14:34:48.437Z,70.76
2022-08-04T14:37:23.473Z,70.43
2022-08-04T14:40:18.439Z,70.48
2022-08-04T14:42:55.238Z,69.55
2022-08-04T14:45:54.843Z,70.01
2022-08-04T14:48:25.797Z,70.03
2022-08-04T14:50:57.013Z,70.30
2022-08-04T14:53:29.012Z,70.21
2022-08-04T14:56:03.384Z,70.21
2022-08-04T14:58:39.200Z,70.19
2022-08-04T15:01:12.955Z,69.83
2022-08-04T15:03:49.650Z,70.36
2022-08-04T15:06:31.445Z,69.79
2022-08-04T15:09:09.230Z,69.84
2022-08-04T15:11:43.459Z,69.96
2022-08-04T15:14:18.540Z,70.13
2022-08-04T15:17:07.343Z,70.26
2022-08-04T15:19:55.702Z,70.51
2022-08-04T15:22:26.736Z,70.53
2022-08-04T15:24:57.417Z,70.65
2022-08-04T15:27:31.429Z,70.46
2022-08-04T15:30:11.254Z,70.57
2022-08-04T15:32:46.845Z,70.42
2022-08-04T15:35:38.795Z,70.33
2022-08-04T15:38:27.836Z,70.58
2022-08-04T15:41:12.770Z,70.90
2022-08-04T15:44:25.857Z,70.50
2022-08-04T15:47:15.078Z,70.53
2022-08-04T15:49:47.212Z,70.87
2022-08-04T15:52:21.728Z,70.75
2022-08-04T15:55:12.351Z,71.01
2022-08-04T15:58:03.679Z,71.33
2022-08-04T16:00:57.866Z,71.27
2022-08-04T16:04:00.563Z,71.62
2022-08-04T16:06:31.466Z,71.36
2022-08-04T16:09:02.491Z,71.47
2022-08-04T16:11:34.491Z,72.14
2022-08-04T16:14:05.133Z,71.92
2022-08-04T16:16:47.198Z,72.47
2022-08-04T16:19:22.778Z,72.26
2022-08-04T16:21:56.307Z,72.74
2022-08-04T16:24:33.595Z,73.04
2022-08-04T16:27:14.628Z,73.05
2022-08-04T16:29:46.666Z,73.22
2022-08-04T16:32:18.970Z,73.20
2022-08-04T16:34:56.265Z,72.91
2022-08-04T16:37:40.614Z,73.55
2022-08-04T16:40:46.617Z,73.27
2022-08-04T16:43:23.026Z,73.60
2022-08-04T16:45:57.328Z,73.88
2022-08-04T16:48:36.856Z,73.82
2022-08-04T16:51:09.380Z,73.82
2022-08-04T16:53:59.191Z,74.00
2022-08-04T16:56:36.656Z,74.29
2022-08-04T16:59:12.299Z,74.55
2022-08-04T17:01:50.041Z,74.45
2022-08-04T17:04:20.690Z,74.74
2022-08-04T17:06:51.456Z,75.24
2022-08-04T17:09:26.885Z,75.23
2022-08-04T17:12:00.101Z,75.04
2022-08-04T17:14:31.765Z,75.08
2022-08-04T17:17:04.235Z,75.25
2022-08-04T17:19:39.764Z,75.67
2022-08-04T17:22:11.530Z,75.36
2022-08-04T17:24:42.860Z,75.36
2022-08-04T17:28:20.141Z,75.52
2022-08-04T17:30:04.422Z,75.28
2022-08-04T17:32:35.525Z,75.20
2022-08-04T17:35:11.353Z,75.56
2022-08-04T17:37:53.173Z,75.60
2022-08-04T17:40:25.972Z,75.51
2022-08-04T17:44:04.923Z,75.46
2022-08-04T17:46:29.365Z,75.42
2022-08-04T17:49:18.520Z,75.17
2022-08-04T17:52:04.199Z,75.57
2022-08-04T17:54:43.399Z,75.19
2022-08-04T17:57:21.596Z,75.22
2022-08-04T17:59:59.329Z,75.33
2022-08-04T18:02:34.842Z,75.68
2022-08-04T18:05:11.320Z,75.76
2022-08-04T18:08:37.720Z,75.65
2022-08-04T18:10:55.147Z,74.41
2022-08-04T18:13:42.932Z,74.41
2022-08-04T18:16:22.550Z,74.57
2022-08-04T18:19:13.655Z,75.20
2022-08-04T18:21:46.429Z,74.86
2022-08-04T18:24:55.645Z,75.32
2022-08-04T18:27:29.898Z,75.39
2022-08-04T18:30:34.632Z,75.38
2022-08-04T18:33:24.531Z,75.45
2022-08-04T18:36:33.427Z,75.46
2022-08-04T18:38:32.520Z,75.29
2022-08-04T18:41:02.780Z,75.52
2022-08-04T18:43:41.040Z,75.16
2022-08-04T18:46:15.110Z,75.35
2022-08-04T18:48:52.405Z,75.41
2022-08-04T18:51:24.938Z,75.16
2022-08-04T18:54:01.440Z,75.64
2022-08-04T18:56:34.143Z,75.64
2022-08-04T18:59:10.225Z,75.38
2022-08-04T19:02:12.382Z,75.50
2022-08-04T19:04:36.750Z,75.41
2022-08-04T19:07:29.207Z,75.75
2022-08-04T19:09:59.882Z,75.61
2022-08-04T19:12:30.602Z,75.45
2022-08-04T19:15:10.630Z,75.73
2022-08-04T19:17:54.261Z,75.79
2022-08-04T19:20:31.450Z,75.56
2022-08-04T19:24:10.272Z,75.92
2022-08-04T19:26:01.196Z,75.35
2022-08-04T19:28:40.023Z,75.56
2022-08-04T19:31:11.781Z,75.64
2022-08-04T19:36:38.551Z,76.11
2022-08-04T19:39:16.490Z,75.76
2022-08-04T19:42:06.055Z,75.92
2022-08-04T19:44:37.002Z,75.60
2022-08-04T19:48:16.474Z,75.55
2022-08-04T19:50:10.554Z,75.91
2022-08-04T19:52:51.587Z,76.14
2022-08-04T19:55:37.178Z,76.09
2022-08-04T19:58:10.232Z,76.03
2022-08-04T20:00:44.825Z,76.23
2022-08-04T20:03:21.982Z,76.26
2022-08-04T20:05:55.302Z,76.55
2022-08-04T20:08:32.639Z,76.63
2022-08-04T20:11:03.106Z,76.81
2022-08-04T20:13:37.679Z,76.62
2022-08-04T20:16:30.449Z,76.71
2022-08-04T20:19:04.118Z,77.22
2022-08-04T20:21:56.180Z,76.77
2022-08-04T20:24:37.648Z,76.69
2022-08-04T20:27:16.237Z,76.58
2022-08-04T20:29:49.902Z,76.92
2022-08-04T20:32:26.211Z,76.77
2022-08-04T20:34:58.577Z,77.07
2022-08-04T20:37:54.785Z,77.01
2022-08-04T20:40:20.289Z,77.24
2022-08-04T20:42:53.542Z,77.46
2022-08-04T20:45:24.171Z,76.98
2022-08-04T20:48:14.425Z,77.45
2022-08-04T20:50:51.683Z,77.42
2022-08-04T20:53:21.884Z,77.36
2022-08-04T20:56:12.070Z,77.34
2022-08-04T20:58:49.774Z,77.59
2022-08-04T21:01:20.096Z,77.43
2022-08-04T21:04:28.209Z,77.56
2022-08-04T21:06:59.914Z,77.21
2022-08-04T21:09:37.859Z,77.03
2022-08-04T21:12:27.463Z,77.30
2022-08-04T21:15:13.311Z,77.31
2022-08-04T21:17:59.597Z,77.65
2022-08-04T21:20:39.496Z,77.84
2022-08-04T21:23:12.949Z,77.74
2022-08-04T21:25:43.786Z,77.55
2022-08-04T21:28:20.284Z,77.46
2022-08-04T21:30:54.919Z,77.69
2022-08-04T21:36:21.014Z,78.08
2022-08-04T21:38:52.501Z,78.07
2022-08-04T21:41:24.622Z,78.17
2022-08-04T21:43:59.096Z,78.02
2022-08-04T21:46:32.047Z,77.92
2022-08-04T21:49:04.414Z,77.80
2022-08-04T21:51:59.350Z,77.07
2022-08-04T21:54:31.279Z,76.35
2022-08-04T21:57:03.422Z,76.21
2022-08-04T21:59:33.971Z,75.45
2022-08-04T22:02:17.309Z,74.79
2022-08-04T22:04:48.369Z,74.23
2022-08-04T22:07:22.995Z,74.23
2022-08-04T22:10:00.339Z,73.76
2022-08-04T22:12:34.120Z,72.93
2022-08-04T22:16:04.032Z,72.92
2022-08-04T22:17:57.093Z,73.13
2022-08-04T22:20:28.353Z,73.26
2022-08-04T22:23:15.723Z,73.09
2022-08-04T22:25:55.755Z,73.02
2022-08-04T22:28:28.978Z,73.21
2022-08-04T22:30:59.907Z,73.43
2022-08-04T22:33:55.298Z,72.99
2022-08-04T22:36:26.972Z,73.37
2022-08-04T22:39:06.577Z,73.36
2022-08-04T22:42:03.098Z,73.31
2022-08-04T22:44:33.076Z,73.04
2022-08-04T22:47:06.737Z,72.83
2022-08-04T22:49:39.895Z,72.89
2022-08-04T22:52:17.009Z,72.78
2022-08-04T22:54:57.418Z,72.50
2022-08-04T22:57:43.373Z,72.17
2022-08-04T23:00:28.661Z,72.21
2022-08-04T23:02:59.627Z,72.25
